Saujil, Argentina
Current Conditions -  °F | °C
As of 2:00 PM on Tuesday 21 Oct 2014 (Local Time) from SANT Reporting Station
Broken Clouds Broken Clouds  
Wind Chill: 32°   Ceiling: 3500
Heat Index: 33°   Visibility: 6mi
Dew Point: 18°   Wind: 2mph
Humidity: 43%   Direction: 360°N
Pressure: 30"   Gusts: NA
Location:  28.18°S, 66.23°W
Report Text: SANT 211700Z 36002KT 9999 BKN035 SCT20032/18 Q1016
Loading
Personal Weather Stations






























Interactive Weather Map
Tropical Storm Tracking
New forecast layout! Learn more

10-Day Weather Forecast

Advertisements
Track Severe Weather on mobile